sensor_id;sensor_type;location;lat;lon;timestamp;pressure;altitude;pressure_sealevel;temperature;humidity
73240;BME280;61452;40.054;4.110;2022-09-27T00:04:20;101258.16;;;24.75;64.48
73240;BME280;61452;40.054;4.110;2022-09-27T00:09:22;101262.72;;;24.75;64.33
73240;BME280;61452;40.054;4.110;2022-09-27T00:14:24;101257.50;;;24.73;64.22
73240;BME280;61452;40.054;4.110;2022-09-27T00:19:26;101247.63;;;24.74;64.71
73240;BME280;61452;40.054;4.110;2022-09-27T00:24:29;101231.66;;;24.72;64.13
73240;BME280;61452;40.054;4.110;2022-09-27T00:29:32;101234.19;;;24.74;64.26
73240;BME280;61452;40.054;4.110;2022-09-27T00:34:34;101233.50;;;24.72;64.54
73240;BME280;61452;40.054;4.110;2022-09-27T00:39:37;101237.03;;;24.72;63.97
73240;BME280;61452;40.054;4.110;2022-09-27T00:55:19;101230.81;;;24.72;63.88
73240;BME280;61452;40.054;4.110;2022-09-27T01:00:23;101223.59;;;24.72;64.41
73240;BME280;61452;40.054;4.110;2022-09-27T01:05:27;101217.41;;;24.72;64.29
73240;BME280;61452;40.054;4.110;2022-09-27T01:10:35;101217.41;;;24.72;64.08
73240;BME280;61452;40.054;4.110;2022-09-27T01:32:07;101197.91;;;24.70;64.43
73240;BME280;61452;40.054;4.110;2022-09-27T01:42:36;101169.44;;;24.69;64.34
73240;BME280;61452;40.054;4.110;2022-09-27T01:47:45;101162.19;;;24.69;63.90
73240;BME280;61452;40.054;4.110;2022-09-27T01:53:18;101155.00;;;24.70;64.12
73240;BME280;61452;40.054;4.110;2022-09-27T01:58:58;101148.78;;;24.69;63.26
73240;BME280;61452;40.054;4.110;2022-09-27T02:04:03;101134.56;;;24.69;63.40
73240;BME280;61452;40.054;4.110;2022-09-27T02:09:49;101133.72;;;24.68;63.73
73240;BME280;61452;40.054;4.110;2022-09-27T02:15:07;101133.16;;;24.65;64.43
73240;BME280;61452;40.054;4.110;2022-09-27T02:20:36;101127.66;;;24.66;64.28
73240;BME280;61452;40.054;4.110;2022-09-27T02:30:46;101123.97;;;24.67;64.63
73240;BME280;61452;40.054;4.110;2022-09-27T02:36:00;101114.22;;;24.66;64.46
73240;BME280;61452;40.054;4.110;2022-09-27T02:41:12;101104.50;;;24.65;64.66
73240;BME280;61452;40.054;4.110;2022-09-27T02:46:38;101116.78;;;24.68;64.57
73240;BME280;61452;40.054;4.110;2022-09-27T03:07:39;101099.97;;;24.66;64.16
73240;BME280;61452;40.054;4.110;2022-09-27T03:12:42;101099.13;;;24.65;64.73
73240;BME280;61452;40.054;4.110;2022-09-27T03:17:45;101080.84;;;24.61;64.73
73240;BME280;61452;40.054;4.110;2022-09-27T03:23:11;101088.56;;;24.64;64.82
73240;BME280;61452;40.054;4.110;2022-09-27T03:28:13;101085.88;;;24.64;64.99
73240;BME280;61452;40.054;4.110;2022-09-27T03:33:16;101069.97;;;24.62;65.13
73240;BME280;61452;40.054;4.110;2022-09-27T03:38:22;101070.94;;;24.61;65.00
73240;BME280;61452;40.054;4.110;2022-09-27T03:43:24;101067.28;;;24.62;64.70
73240;BME280;61452;40.054;4.110;2022-09-27T03:48:31;101056.53;;;24.62;64.27
73240;BME280;61452;40.054;4.110;2022-09-27T03:53:33;101044.91;;;24.53;63.58
73240;BME280;61452;40.054;4.110;2022-09-27T03:58:35;101050.97;;;24.55;63.20
73240;BME280;61452;40.054;4.110;2022-09-27T04:03:38;101055.50;;;24.55;62.68
73240;BME280;61452;40.054;4.110;2022-09-27T04:08:59;101055.13;;;24.50;62.42
73240;BME280;61452;40.054;4.110;2022-09-27T04:14:16;101060.31;;;24.51;61.74
73240;BME280;61452;40.054;4.110;2022-09-27T04:19:39;101054.28;;;24.49;61.56
73240;BME280;61452;40.054;4.110;2022-09-27T04:24:43;101055.28;;;24.48;60.99
73240;BME280;61452;40.054;4.110;2022-09-27T04:29:59;101053.75;;;24.46;60.09
73240;BME280;61452;40.054;4.110;2022-09-27T04:35:22;101046.69;;;24.45;59.26
73240;BME280;61452;40.054;4.110;2022-09-27T04:40:42;101045.53;;;24.47;59.58
73240;BME280;61452;40.054;4.110;2022-09-27T04:45:46;101043.84;;;24.46;59.47
73240;BME280;61452;40.054;4.110;2022-09-27T04:50:55;101055.91;;;24.42;59.33
73240;BME280;61452;40.054;4.110;2022-09-27T04:55:58;101062.78;;;24.45;58.77
73240;BME280;61452;40.054;4.110;2022-09-27T05:01:06;101039.75;;;24.34;57.96
73240;BME280;61452;40.054;4.110;2022-09-27T05:06:31;101050.53;;;24.42;57.20
73240;BME280;61452;40.054;4.110;2022-09-27T05:11:40;101057.06;;;24.40;56.67
73240;BME280;61452;40.054;4.110;2022-09-27T05:16:48;101050.53;;;24.42;56.53
73240;BME280;61452;40.054;4.110;2022-09-27T05:22:08;101048.50;;;24.36;56.90
73240;BME280;61452;40.054;4.110;2022-09-27T05:27:13;101059.38;;;24.35;56.99
73240;BME280;61452;40.054;4.110;2022-09-27T05:32:19;101064.44;;;24.38;56.65
73240;BME280;61452;40.054;4.110;2022-09-27T05:37:28;101059.22;;;24.36;56.85
73240;BME280;61452;40.054;4.110;2022-09-27T05:42:32;101064.81;;;24.43;56.42
73240;BME280;61452;40.054;4.110;2022-09-27T05:47:36;101047.31;;;24.39;56.72
73240;BME280;61452;40.054;4.110;2022-09-27T05:52:38;101067.41;;;24.35;56.87
73240;BME280;61452;40.054;4.110;2022-09-27T05:57:41;101052.31;;;24.34;57.26
73240;BME280;61452;40.054;4.110;2022-09-27T06:02:43;101071.09;;;24.34;57.35
73240;BME280;61452;40.054;4.110;2022-09-27T06:07:49;101080.13;;;24.33;57.23
73240;BME280;61452;40.054;4.110;2022-09-27T06:13:00;101081.97;;;24.32;57.77
73240;BME280;61452;40.054;4.110;2022-09-27T06:18:10;101084.19;;;24.37;56.32
73240;BME280;61452;40.054;4.110;2022-09-27T06:23:15;101112.00;;;24.36;56.14
73240;BME280;61452;40.054;4.110;2022-09-27T06:28:21;101088.56;;;24.38;56.01
73240;BME280;61452;40.054;4.110;2022-09-27T06:33:27;101076.09;;;24.29;55.85
73240;BME280;61452;40.054;4.110;2022-09-27T06:38:32;101098.59;;;24.36;56.32
73240;BME280;61452;40.054;4.110;2022-09-27T06:43:53;101122.50;;;24.29;57.34
73240;BME280;61452;40.054;4.110;2022-09-27T06:49:15;101094.38;;;24.33;56.92
73240;BME280;61452;40.054;4.110;2022-09-27T06:54:17;101095.22;;;24.34;57.13
73240;BME280;61452;40.054;4.110;2022-09-27T06:59:20;101104.25;;;24.33;57.35
73240;BME280;61452;40.054;4.110;2022-09-27T07:05:07;101105.78;;;24.35;57.22
73240;BME280;61452;40.054;4.110;2022-09-27T07:10:32;101125.25;;;24.37;56.53
73240;BME280;61452;40.054;4.110;2022-09-27T07:15:40;101105.78;;;24.35;57.05
73240;BME280;61452;40.054;4.110;2022-09-27T07:20:46;101112.84;;;24.36;56.85
73240;BME280;61452;40.054;4.110;2022-09-27T07:25:49;101115.53;;;24.36;56.40
73240;BME280;61452;40.054;4.110;2022-09-27T07:30:54;101096.91;;;24.35;56.49
73240;BME280;61452;40.054;4.110;2022-09-27T07:35:58;101114.84;;;24.34;56.43
73240;BME280;61452;40.054;4.110;2022-09-27T07:41:08;101116.38;;;24.37;56.36
73240;BME280;61452;40.054;4.110;2022-09-27T07:46:12;101112.00;;;24.36;55.96
73240;BME280;61452;40.054;4.110;2022-09-27T07:51:25;101106.09;;;24.32;56.70
73240;BME280;61452;40.054;4.110;2022-09-27T07:56:38;101112.25;;;24.25;56.82
73240;BME280;61452;40.054;4.110;2022-09-27T08:01:41;101099.84;;;24.24;56.47
73240;BME280;61452;40.054;4.110;2022-09-27T08:06:43;101108.19;;;24.21;56.17
73240;BME280;61452;40.054;4.110;2022-09-27T08:11:46;101108.19;;;24.21;55.83
73240;BME280;61452;40.054;4.110;2022-09-27T08:16:49;101111.16;;;24.17;56.14
73240;BME280;61452;40.054;4.110;2022-09-27T08:22:18;101123.81;;;24.25;55.93
73240;BME280;61452;40.054;4.110;2022-09-27T08:27:31;101140.34;;;24.21;55.96
73240;BME280;61452;40.054;4.110;2022-09-27T08:32:36;101140.34;;;24.21;56.33
73240;BME280;61452;40.054;4.110;2022-09-27T08:37:40;101145.72;;;24.21;57.05
73240;BME280;61452;40.054;4.110;2022-09-27T08:42:59;101151.91;;;24.21;56.82
73240;BME280;61452;40.054;4.110;2022-09-27T08:48:03;101158.13;;;24.22;57.31
73240;BME280;61452;40.054;4.110;2022-09-27T08:58:21;101152.22;;;24.18;57.57
73240;BME280;61452;40.054;4.110;2022-09-27T09:03:28;101170.81;;;24.19;57.72
73240;BME280;61452;40.054;4.110;2022-09-27T09:19:17;101161.25;;;24.17;58.63
73240;BME280;61452;40.054;4.110;2022-09-27T09:41:25;101186.31;;;24.26;59.71
73240;BME280;61452;40.054;4.110;2022-09-27T09:46:36;101179.28;;;24.25;59.70
73240;BME280;61452;40.054;4.110;2022-09-27T09:51:52;101175.06;;;24.22;59.78
73240;BME280;61452;40.054;4.110;2022-09-27T09:57:10;101173.06;;;24.24;60.04
73240;BME280;61452;40.054;4.110;2022-09-27T10:02:20;101162.50;;;24.23;60.24
73240;BME280;61452;40.054;4.110;2022-09-27T10:07:30;101156.38;;;24.30;60.24
73240;BME280;61452;40.054;4.110;2022-09-27T10:12:34;101161.03;;;24.28;60.32
73240;BME280;61452;40.054;4.110;2022-09-27T10:17:41;101171.63;;;24.30;60.34
73240;BME280;61452;40.054;4.110;2022-09-27T10:22:52;101173.59;;;24.28;59.98
73240;BME280;61452;40.054;4.110;2022-09-27T10:28:36;101178.97;;;24.28;60.22
73240;BME280;61452;40.054;4.110;2022-09-27T10:34:02;101168.56;;;24.25;60.31
73240;BME280;61452;40.054;4.110;2022-09-27T10:39:21;101187.69;;;24.30;59.89
73240;BME280;61452;40.054;4.110;2022-09-27T10:49:48;101172.59;;;24.29;59.59
73240;BME280;61452;40.054;4.110;2022-09-27T10:55:21;101168.94;;;24.30;59.90
73240;BME280;61452;40.054;4.110;2022-09-27T11:00:33;101177.81;;;24.30;59.91
73240;BME280;61452;40.054;4.110;2022-09-27T11:05:39;101166.78;;;24.33;60.22
73240;BME280;61452;40.054;4.110;2022-09-27T11:10:41;101179.19;;;24.34;60.04
73240;BME280;61452;40.054;4.110;2022-09-27T11:16:15;101163.09;;;24.34;60.29
73240;BME280;61452;40.054;4.110;2022-09-27T11:32:12;101164.63;;;24.37;60.36
73240;BME280;61452;40.054;4.110;2022-09-27T11:48:22;101155.59;;;24.38;60.50
73240;BME280;61452;40.054;4.110;2022-09-27T11:54:03;101163.78;;;24.36;60.74
73240;BME280;61452;40.054;4.110;2022-09-27T12:09:39;101145.03;;;24.36;61.13
73240;BME280;61452;40.054;4.110;2022-09-27T12:14:48;101134.78;;;24.32;61.68
73240;BME280;61452;40.054;4.110;2022-09-27T12:19:54;101131.41;;;24.30;61.42
73240;BME280;61452;40.054;4.110;2022-09-27T12:25:13;101135.06;;;24.29;61.43
73240;BME280;61452;40.054;4.110;2022-09-27T12:30:31;101124.19;;;24.30;61.37
73240;BME280;61452;40.054;4.110;2022-09-27T12:35:44;101117.84;;;24.31;61.32
73240;BME280;61452;40.054;4.110;2022-09-27T12:40:52;101110.78;;;24.30;61.28
73240;BME280;61452;40.054;4.110;2022-09-27T12:51:50;101115.78;;;24.25;61.88
73240;BME280;61452;40.054;4.110;2022-09-27T13:13:33;101136.06;;;24.28;61.89
73240;BME280;61452;40.054;4.110;2022-09-27T13:23:54;101133.38;;;24.28;61.82
73240;BME280;61452;40.054;4.110;2022-09-27T13:29:01;101120.13;;;24.26;62.04
73240;BME280;61452;40.054;4.110;2022-09-27T13:39:40;101122.50;;;24.29;62.31
73240;BME280;61452;40.054;4.110;2022-09-27T13:45:22;101135.91;;;24.29;62.45
73240;BME280;61452;40.054;4.110;2022-09-27T13:50:39;101136.91;;;24.28;62.61
73240;BME280;61452;40.054;4.110;2022-09-27T13:55:50;101143.13;;;24.29;62.96
73240;BME280;61452;40.054;4.110;2022-09-27T14:01:31;101148.31;;;24.30;62.68
73240;BME280;61452;40.054;4.110;2022-09-27T14:06:41;101143.81;;;24.31;62.66
73240;BME280;61452;40.054;4.110;2022-09-27T14:11:51;101138.25;;;24.32;62.69
73240;BME280;61452;40.054;4.110;2022-09-27T14:16:58;101128.56;;;24.31;62.63
73240;BME280;61452;40.054;4.110;2022-09-27T14:22:01;101128.56;;;24.31;62.33
73240;BME280;61452;40.054;4.110;2022-09-27T14:27:34;101124.88;;;24.32;62.12
73240;BME280;61452;40.054;4.110;2022-09-27T14:32:57;101132.09;;;24.32;62.26
73240;BME280;61452;40.054;4.110;2022-09-27T14:38:29;101124.34;;;24.29;62.47
73240;BME280;61452;40.054;4.110;2022-09-27T14:43:46;101120.53;;;24.31;62.71
73240;BME280;61452;40.054;4.110;2022-09-27T14:48:51;101124.88;;;24.32;62.92
73240;BME280;61452;40.054;4.110;2022-09-27T14:53:56;101130.91;;;24.34;63.30
73240;BME280;61452;40.054;4.110;2022-09-27T14:59:23;101135.75;;;24.31;62.99
73240;BME280;61452;40.054;4.110;2022-09-27T15:04:30;101124.88;;;24.32;63.37
73240;BME280;61452;40.054;4.110;2022-09-27T15:09:35;101128.38;;;24.33;63.23
73240;BME280;61452;40.054;4.110;2022-09-27T15:14:40;101126.56;;;24.33;63.20
73240;BME280;61452;40.054;4.110;2022-09-27T15:19:57;101138.25;;;24.32;63.41
73240;BME280;61452;40.054;4.110;2022-09-27T15:25:14;101136.44;;;24.33;63.25
73240;BME280;61452;40.054;4.110;2022-09-27T15:35:38;101141.66;;;24.34;63.65
73240;BME280;61452;40.054;4.110;2022-09-27T15:45:52;101155.91;;;24.35;63.74
73240;BME280;61452;40.054;4.110;2022-09-27T15:50:54;101163.09;;;24.34;63.75
73240;BME280;61452;40.054;4.110;2022-09-27T15:55:56;101156.75;;;24.35;63.48
73240;BME280;61452;40.054;4.110;2022-09-27T16:01:00;101162.94;;;24.36;63.44
73240;BME280;61452;40.054;4.110;2022-09-27T16:06:09;101163.09;;;24.34;63.60
73240;BME280;61452;40.054;4.110;2022-09-27T16:11:14;101162.09;;;24.35;63.67
73240;BME280;61452;40.054;4.110;2022-09-27T16:16:18;101158.59;;;24.35;63.59
73240;BME280;61452;40.054;4.110;2022-09-27T16:21:21;101173.81;;;24.34;63.47
73240;BME280;61452;40.054;4.110;2022-09-27T16:26:23;101178.19;;;24.35;63.82
73240;BME280;61452;40.054;4.110;2022-09-27T16:31:25;101187.09;;;24.36;63.66
73240;BME280;61452;40.054;4.110;2022-09-27T16:36:27;101183.41;;;24.37;63.70
73240;BME280;61452;40.054;4.110;2022-09-27T16:41:29;101187.78;;;24.38;63.66
73240;BME280;61452;40.054;4.110;2022-09-27T16:46:31;101188.78;;;24.37;63.80
73240;BME280;61452;40.054;4.110;2022-09-27T16:51:35;101188.78;;;24.37;63.74
73240;BME280;61452;40.054;4.110;2022-09-27T16:56:57;101178.19;;;24.35;63.84
73240;BME280;61452;40.054;4.110;2022-09-27T17:01:59;101167.75;;;24.32;63.82
73240;BME280;61452;40.054;4.110;2022-09-27T17:07:01;101187.09;;;24.36;63.87
73240;BME280;61452;40.054;4.110;2022-09-27T17:12:04;101183.41;;;24.37;64.05
73240;BME280;61452;40.054;4.110;2022-09-27T17:17:11;101191.47;;;24.37;64.06
73240;BME280;61452;40.054;4.110;2022-09-27T17:22:14;101195.84;;;24.38;63.92
73240;BME280;61452;40.054;4.110;2022-09-27T17:27:16;101191.47;;;24.37;63.92
73240;BME280;61452;40.054;4.110;2022-09-27T17:32:18;101188.78;;;24.37;64.01
73240;BME280;61452;40.054;4.110;2022-09-27T17:37:25;101208.41;;;24.37;64.04
73240;BME280;61452;40.054;4.110;2022-09-27T17:42:27;101204.69;;;24.38;64.04
73240;BME280;61452;40.054;4.110;2022-09-27T17:47:29;101214.59;;;24.38;64.15
73240;BME280;61452;40.054;4.110;2022-09-27T17:52:51;101225.31;;;24.38;64.01
73240;BME280;61452;40.054;4.110;2022-09-27T17:57:54;101227.00;;;24.39;64.04
73240;BME280;61452;40.054;4.110;2022-09-27T18:02:56;101232.34;;;24.39;64.21
73240;BME280;61452;40.054;4.110;2022-09-27T18:07:58;101236.88;;;24.38;64.09
73240;BME280;61452;40.054;4.110;2022-09-27T18:13:00;101236.06;;;24.38;64.28
73240;BME280;61452;40.054;4.110;2022-09-27T18:18:03;101249.28;;;24.39;64.09
73240;BME280;61452;40.054;4.110;2022-09-27T18:23:06;101243.06;;;24.39;64.23
73240;BME280;61452;40.054;4.110;2022-09-27T18:28:08;101228.81;;;24.38;64.35
73240;BME280;61452;40.054;4.110;2022-09-27T18:33:10;101228.81;;;24.38;64.32
73240;BME280;61452;40.054;4.110;2022-09-27T18:38:12;101241.41;;;24.38;64.24
73240;BME280;61452;40.054;4.110;2022-09-27T18:43:14;101255.63;;;24.38;64.24
73240;BME280;61452;40.054;4.110;2022-09-27T18:48:16;101255.63;;;24.38;64.33
73240;BME280;61452;40.054;4.110;2022-09-27T18:53:18;101277.09;;;24.38;64.33
73240;BME280;61452;40.054;4.110;2022-09-27T18:58:20;101274.72;;;24.35;64.37
73240;BME280;61452;40.054;4.110;2022-09-27T19:03:22;101290.50;;;24.38;64.43
73240;BME280;61452;40.054;4.110;2022-09-27T19:08:25;101295.88;;;24.38;64.47
73240;BME280;61452;40.054;4.110;2022-09-27T19:13:27;101299.56;;;24.37;64.38
73240;BME280;61452;40.054;4.110;2022-09-27T19:18:38;101314.63;;;24.38;64.59
73240;BME280;61452;40.054;4.110;2022-09-27T19:23:41;101325.22;;;24.40;64.54
73240;BME280;61452;40.054;4.110;2022-09-27T19:28:44;101328.03;;;24.38;64.78
73240;BME280;61452;40.054;4.110;2022-09-27T19:33:47;101318.78;;;24.33;64.52
73240;BME280;61452;40.054;4.110;2022-09-27T19:38:49;101322.69;;;24.38;64.58
73240;BME280;61452;40.054;4.110;2022-09-27T19:43:54;101328.03;;;24.38;64.79
73240;BME280;61452;40.054;4.110;2022-09-27T19:48:56;101336.41;;;24.35;64.73
73240;BME280;61452;40.054;4.110;2022-09-27T19:53:58;101334.44;;;24.37;64.90
73240;BME280;61452;40.054;4.110;2022-09-27T19:59:00;101335.28;;;24.38;64.85
73240;BME280;61452;40.054;4.110;2022-09-27T20:04:10;101339.78;;;24.37;64.85
73240;BME280;61452;40.054;4.110;2022-09-27T20:09:13;101351.38;;;24.38;64.90
73240;BME280;61452;40.054;4.110;2022-09-27T20:14:15;101347.97;;;24.36;64.88
73240;BME280;61452;40.054;4.110;2022-09-27T20:19:18;101358.56;;;24.37;64.78
73240;BME280;61452;40.054;4.110;2022-09-27T20:24:20;101358.56;;;24.37;65.03
73240;BME280;61452;40.054;4.110;2022-09-27T20:29:23;101356.16;;;24.34;64.95
73240;BME280;61452;40.054;4.110;2022-09-27T20:34:25;101370.13;;;24.38;64.88
73240;BME280;61452;40.054;4.110;2022-09-27T20:39:27;101368.28;;;24.38;65.06
73240;BME280;61452;40.054;4.110;2022-09-27T20:44:29;101360.00;;;24.32;64.81
73240;BME280;61452;40.054;4.110;2022-09-27T20:49:32;101365.75;;;24.37;64.97
73240;BME280;61452;40.054;4.110;2022-09-27T20:54:34;101363.94;;;24.37;65.07
73240;BME280;61452;40.054;4.110;2022-09-27T20:59:36;101359.41;;;24.38;64.92
73240;BME280;61452;40.054;4.110;2022-09-27T21:04:38;101350.53;;;24.37;nan
73240;BME280;61452;40.054;4.110;2022-09-27T21:09:41;101359.41;;;24.38;65.09
73240;BME280;61452;40.054;4.110;2022-09-27T21:14:44;101359.41;;;24.38;65.24
73240;BME280;61452;40.054;4.110;2022-09-27T21:19:45;101365.75;;;24.37;65.17
73240;BME280;61452;40.054;4.110;2022-09-27T21:24:48;101371.13;;;24.37;65.10
73240;BME280;61452;40.054;4.110;2022-09-27T21:29:50;101375.50;;;24.38;65.26
73240;BME280;61452;40.054;4.110;2022-09-27T21:34:52;101386.22;;;24.38;65.08
73240;BME280;61452;40.054;4.110;2022-09-27T21:39:54;101379.19;;;24.37;65.15
73240;BME280;61452;40.054;4.110;2022-09-27T21:44:58;101364.53;;;24.31;65.16
73240;BME280;61452;40.054;4.110;2022-09-27T21:50:01;101368.44;;;24.37;65.23
73240;BME280;61452;40.054;4.110;2022-09-27T21:55:04;101368.59;;;24.35;65.28
73240;BME280;61452;40.054;4.110;2022-09-27T22:00:07;101364.06;;;24.36;65.36
73240;BME280;61452;40.054;4.110;2022-09-27T22:05:10;101362.25;;;24.36;65.23
73240;BME280;61452;40.054;4.110;2022-09-27T22:10:12;101355.19;;;24.35;65.19
73240;BME280;61452;40.054;4.110;2022-09-27T22:15:14;101349.81;;;24.35;65.42
73240;BME280;61452;40.054;4.110;2022-09-27T22:20:16;101339.09;;;24.35;65.29
73240;BME280;61452;40.054;4.110;2022-09-27T22:25:18;101338.25;;;24.35;65.41
73240;BME280;61452;40.054;4.110;2022-09-27T22:30:21;101329.34;;;24.34;65.51
73240;BME280;61452;40.054;4.110;2022-09-27T22:35:23;101344.59;;;24.34;65.33
73240;BME280;61452;40.054;4.110;2022-09-27T22:40:25;101334.56;;;24.36;65.55
73240;BME280;61452;40.054;4.110;2022-09-27T22:45:27;101328.50;;;24.34;65.54
73240;BME280;61452;40.054;4.110;2022-09-27T22:50:29;101330.19;;;24.35;65.57
73240;BME280;61452;40.054;4.110;2022-09-27T22:55:32;101318.63;;;24.34;65.36
73240;BME280;61452;40.054;4.110;2022-09-27T23:00:36;101323.16;;;24.34;65.59
73240;BME280;61452;40.054;4.110;2022-09-27T23:05:38;101315.09;;;24.34;65.59
73240;BME280;61452;40.054;4.110;2022-09-27T23:10:41;101324.84;;;24.35;65.34
73240;BME280;61452;40.054;4.110;2022-09-27T23:15:43;101298.03;;;24.35;65.60
73240;BME280;61452;40.054;4.110;2022-09-27T23:20:45;101305.22;;;24.34;65.35
73240;BME280;61452;40.054;4.110;2022-09-27T23:25:47;101307.91;;;24.34;65.73
73240;BME280;61452;40.054;4.110;2022-09-27T23:30:50;101308.03;;;24.33;65.54
73240;BME280;61452;40.054;4.110;2022-09-27T23:35:52;101298.16;;;24.33;65.75
73240;BME280;61452;40.054;4.110;2022-09-27T23:40:54;101298.16;;;24.33;65.66
73240;BME280;61452;40.054;4.110;2022-09-27T23:45:56;101283.91;;;24.33;65.45
73240;BME280;61452;40.054;4.110;2022-09-27T23:50:58;101282.91;;;24.34;65.65
73240;BME280;61452;40.054;4.110;2022-09-27T23:56:04;101273.19;;;24.33;65.41
